Flight Track Log - Related Links

Times and Time Zones

All times are in EST time to prevent confusion due to time zone crossing. See the UCA3599 flight status page for this flight to view local times or setup timezone preferences in your user account.

Time Position Orientation Groundspeed Altitude Reporting Facility
EST Latitude Longitude Course Direction KTS MPH feet Rate Location/Type
Sun 05:58:46 AM 42.1456 -75.9956 211° Southwest 240 276 4,200  Level New Center
Sun 05:59:45 AM 42.1108 -76.0319 218° Southwest 195 224 5,700 1,462 Climbing New Center
Sun 06:00:45 AM 42.0658 -76.0589 204° Southwest 174 200 7,100 1,785 Climbing New Center
Sun 06:01:46 AM 42.0208 -76.0889 206° Southwest 169 194 9,300 1,686 Climbing New Center
Sun 06:02:46 AM 41.9800 -76.1164 207° Southwest 169 194 10,500 1,109 Climbing New Center
Sun 06:03:00 AM 41.8565 -76.1470 211° Southwest  Level Estimated
Sun 06:03:45 AM 41.9350 -76.1461 206° Southwest 169 194 11,500  Level New Center
Sun 06:04:47 AM 41.8900 -76.1731 204° Southwest 186 214 12,300 950 Climbing New Center
Sun 06:05:45 AM 41.8361 -76.2106 207° Southwest 196 226 13,400 1,068 Climbing New Center
Sun 06:06:45 AM 41.7869 -76.2428 206° Southwest 206 237 14,400 1,050 Climbing New Center
Sun 06:07:45 AM 41.7375 -76.2747 206° Southwest 206 237 15,500 800 Climbing New Center
Sun 06:08:45 AM 41.6925 -76.3017 204° Southwest 206 237 16,000 250 Climbing New Center
Sun 06:09:45 AM 41.6386 -76.3389 207° Southwest 206 237 16,000  Level New Center
Sun 06:10:45 AM 41.5742 -76.3806 206° Southwest 225 259 16,000  Level New Center
Sun 06:11:46 AM 41.5142 -76.4200 206° Southwest 237 273 16,000  Level New Center
Sun 06:12:47 AM 41.4539 -76.4592 206° Southwest 245 282 16,000  Level New Center
Sun 06:13:46 AM 41.3981 -76.4931 204° Southwest 245 282 16,000  Level New Center
Sun 06:14:45 AM 41.3314 -76.5372 206° Southwest 250 288 16,000  Level New Center
Sun 06:15:45 AM 41.2711 -76.5789 207° Southwest 250 288 16,000  Level New Center
Sun 06:16:45 AM 41.2086 -76.6178 205° Southwest 250 288 16,000  Level New Center
Sun 06:17:46 AM 41.1550 -76.6517 205° Southwest 245 282 16,000  Level New Center
Sun 06:18:48 AM 41.0861 -76.6953 206° Southwest 250 288 16,000  Level New Center
Sun 06:19:45 AM 41.0258 -76.7342 206° Southwest 250 288 16,000  Level New Center
Sun 06:20:45 AM 40.9675 -76.7728 207° Southwest 250 288 16,000  Level New Center
Sun 06:21:46 AM 40.9136 -76.8094 207° Southwest 250 288 16,000  Level New Center
Sun 06:22:46 AM 40.8469 -76.8500 205° Southwest 244 281 16,000  Level New Center
Sun 06:23:45 AM 40.7931 -76.8836 205° Southwest 249 287 16,000  Level New Center
Sun 06:24:45 AM 40.7167 -76.9097 195° South 249 287 16,000  Level New Center
Sun 06:25:45 AM 40.6533 -76.9286 193° South 254 292 16,000  Level New Center
Sun 06:26:46 AM 40.5792 -76.9522 194° South 254 292 16,000  Level New Center
Sun 06:27:45 AM 40.5111 -76.9733 193° South 259 298 16,000  Level New Center
Sun 06:28:45 AM 40.4433 -76.9944 193° South 259 298 16,000 -526 Level New Center
Sun 06:30:36 AM 40.3167 -77.0333 193° South 276 318 14,500 -842 Descending Potomac TRACON
Sun 06:31:36 AM 40.2333 -77.0500 189° South 279 321 13,600 -850 Descending Potomac TRACON
Sun 06:32:36 AM 40.1667 -77.0833 201° Southwest 275 316 12,800 -789 Descending Potomac TRACON
Sun 06:33:30 AM 40.1000 -77.1000 191° South 271 312 12,100 -789 Descending Potomac TRACON
Sun 06:34:30 AM 40.0167 -77.1167 189° South 271 312 11,300 -650 Descending Potomac TRACON
Sun 06:35:30 AM 39.9500 -77.1500 201° Southwest 266 306 10,800 -579 Descending Potomac TRACON
Sun 06:36:24 AM 39.8833 -77.1667 191° South 260 299 10,200 -684 Descending Potomac TRACON
Sun 06:37:24 AM 39.8167 -77.1833 191° South 266 306 9,500 -650 Descending Potomac TRACON
Sun 06:38:24 AM 39.7333 -77.2167 197° South 265 305 8,900 -526 Descending Potomac TRACON
Sun 06:39:18 AM 39.6833 -77.2333 194° South 260 299 8,500 -556 Descending Potomac TRACON
Sun 06:40:12 AM 39.6500 -77.3000 237° Southwest 225 259 7,900 -550 Descending Potomac TRACON
Sun 06:41:18 AM 39.5833 -77.3333 201° Southwest 271 312 7,400 -571 Descending Potomac TRACON
Sun 06:42:18 AM 39.5000 -77.3500 189° South 263 303 6,700 -737 Descending Potomac TRACON
Sun 06:43:12 AM 39.4333 -77.3500 180° South 256 295 6,000 -778 Descending Potomac TRACON
Sun 06:44:06 AM 39.3833 -77.3667 194° South 249 287 5,300 -789 Descending Potomac TRACON
Sun 06:45:06 AM 39.3167 -77.4000 201° Southwest 234 269 4,500 -800 Descending Potomac TRACON
Sun 06:46:06 AM 39.2667 -77.4167 194° South 230 265 3,700 -750 Descending Potomac TRACON
Sun 06:47:06 AM 39.2000 -77.4333 191° South 235 270 3,000 -368 Descending Potomac TRACON
Sun 06:48:00 AM 39.1333 -77.4333 180° South 230 265 3,000 -111 Level Potomac TRACON
Sun 06:48:54 AM 39.0833 -77.4333 180° South 215 247 2,800 -684 Descending Potomac TRACON
Sun 06:49:54 AM 39.0333 -77.4333 180° South 182 209 1,700 -900 Descending Potomac TRACON
Sun 06:50:54 AM 38.9833 -77.4333 180° South 137 158 1,000 -700 Descending Potomac TRACON
Sun 06:52:00 AM 38.9474 -77.4599 128° Southeast  Level Estimated
Sun 06:59:00 AM 38.9474 -77.4599 339° North  Level Estimated

Login

Don't have an account? Register now (free) for customized features, flight alerts, and more!